createdAt,value
2019-04-20T00:01:26.308Z,31.02
2019-04-20T00:03:55.307Z,42.98
2019-04-20T00:06:31.754Z,45.05
2019-04-20T00:09:09.705Z,55.23
2019-04-20T00:11:50.241Z,49.15
2019-04-20T00:14:17.257Z,52.25
2019-04-20T00:16:46.052Z,50.40
2019-04-20T00:19:26.166Z,48.20
2019-04-20T00:21:59.587Z,52.53
2019-04-20T00:24:37.224Z,49.65
2019-04-20T00:27:32.850Z,50.40
2019-04-20T00:30:00.149Z,40.10
2019-04-20T00:32:29.529Z,50.33
2019-04-20T00:34:51.164Z,46.00
2019-04-20T00:37:23.439Z,37.30
2019-04-20T00:39:56.481Z,27.47
2019-04-20T00:42:33.960Z,26.70
2019-04-20T00:45:10.726Z,27.13
2019-04-20T00:47:45.399Z,26.70
2019-04-20T00:50:29.762Z,28.20
2019-04-20T00:52:55.597Z,26.60
2019-04-20T00:55:17.041Z,25.40
2019-04-20T00:57:55.341Z,30.97
2019-04-20T01:00:38.310Z,28.77
2019-04-20T01:03:15.787Z,28.47
2019-04-20T01:05:52.943Z,21.83
2019-04-20T01:08:08.173Z,23.10
2019-04-20T01:10:47.208Z,24.50
2019-04-20T01:13:18.696Z,24.83
2019-04-20T01:15:55.353Z,23.33
2019-04-20T01:18:24.054Z,20.47
2019-04-20T01:21:00.301Z,25.17
2019-04-20T01:23:38.225Z,24.10
2019-04-20T01:26:10.937Z,31.05
2019-04-20T01:28:54.203Z,28.47
2019-04-20T01:31:25.371Z,22.65
2019-04-20T01:33:56.591Z,20.37
2019-04-20T01:36:40.628Z,23.43
2019-04-20T01:39:09.214Z,20.20
2019-04-20T01:41:28.512Z,19.42
2019-04-20T01:44:00.583Z,18.60
2019-04-20T01:46:33.747Z,48.50
2019-04-20T01:49:11.501Z,21.80
2019-04-20T01:51:55.603Z,19.10
2019-04-20T01:54:29.858Z,21.07
2019-04-20T01:56:58.891Z,18.97
2019-04-20T01:59:37.095Z,18.40
2019-04-20T02:02:14.059Z,21.17
2019-04-20T02:04:47.311Z,15.63
2019-04-20T02:07:25.567Z,25.60
2019-04-20T02:09:58.295Z,17.87
2019-04-20T02:12:31.158Z,20.83
2019-04-20T02:15:04.326Z,20.17
2019-04-20T02:17:40.811Z,17.93
2019-04-20T02:20:28.696Z,20.23
2019-04-20T02:22:59.410Z,22.40
2019-04-20T02:25:18.555Z,22.43
2019-04-20T02:27:57.823Z,22.80
2019-04-20T02:31:06.340Z,28.17
2019-04-20T02:36:15.476Z,25.57
2019-04-20T02:39:05.860Z,24.90
2019-04-20T02:41:17.890Z,29.43
2019-04-20T02:46:24.835Z,25.87
2019-04-20T02:49:01.028Z,27.03
2019-04-20T02:51:35.460Z,22.83
2019-04-20T02:56:49.217Z,20.87
2019-04-20T02:59:43.226Z,22.70
2019-04-20T03:01:36.660Z,22.27
2019-04-20T03:03:54.938Z,22.90
2019-04-20T03:06:36.443Z,27.07
2019-04-20T03:09:20.370Z,24.30
2019-04-20T03:11:59.648Z,23.50
2019-04-20T03:14:21.790Z,22.17
2019-04-20T03:16:54.770Z,26.50
2019-04-20T03:19:23.679Z,26.57
2019-04-20T03:22:09.829Z,23.90
2019-04-20T03:24:43.928Z,21.53
2019-04-20T03:27:14.870Z,17.30
2019-04-20T03:29:46.976Z,21.60
2019-04-20T03:32:50.091Z,20.57
2019-04-20T03:35:08.132Z,23.97
2019-04-20T03:37:36.981Z,19.33
2019-04-20T03:39:56.817Z,22.83
2019-04-20T03:42:18.186Z,24.13
2019-04-20T03:44:57.068Z,20.70
2019-04-20T03:47:34.881Z,20.63
2019-04-20T03:50:18.526Z,21.63
2019-04-20T03:52:58.322Z,20.13
2019-04-20T03:55:44.574Z,22.10
2019-04-20T03:58:24.162Z,25.27
2019-04-20T04:01:16.309Z,22.33
2019-04-20T04:04:02.624Z,27.53
2019-04-20T04:06:24.262Z,22.73
2019-04-20T04:09:02.801Z,26.40
2019-04-20T04:11:37.904Z,24.80
2019-04-20T04:13:54.660Z,22.33
2019-04-20T04:16:32.822Z,23.07
2019-04-20T04:19:10.067Z,19.97
2019-04-20T04:21:46.824Z,26.87
2019-04-20T04:24:21.192Z,23.27
2019-04-20T04:26:55.997Z,21.77
2019-04-20T04:29:35.588Z,25.63
2019-04-20T04:32:12.091Z,27.73
2019-04-20T04:34:38.518Z,29.30
2019-04-20T04:37:17.624Z,31.37
2019-04-20T04:39:49.242Z,28.30
2019-04-20T04:42:37.808Z,23.70
2019-04-20T04:44:46.786Z,29.17
2019-04-20T04:47:13.396Z,27.03
2019-04-20T04:49:53.875Z,31.10
2019-04-20T04:52:27.524Z,37.90
2019-04-20T04:54:58.753Z,41.93
2019-04-20T04:57:24.838Z,42.07
2019-04-20T04:59:57.314Z,43.73
2019-04-20T05:02:39.335Z,37.67
2019-04-20T05:05:37.787Z,32.80
2019-04-20T05:08:01.883Z,22.30
2019-04-20T05:10:22.393Z,20.40
2019-04-20T05:12:54.814Z,18.20
2019-04-20T05:15:41.276Z,17.47
2019-04-20T05:18:20.659Z,17.50
2019-04-20T05:20:58.803Z,17.70
2019-04-20T05:23:28.078Z,22.20
2019-04-20T05:26:13.801Z,16.20
2019-04-20T05:28:48.607Z,20.83
2019-04-20T05:31:12.232Z,17.73
2019-04-20T05:34:10.847Z,15.43
2019-04-20T05:36:41.498Z,16.63
2019-04-20T05:39:23.587Z,14.93
2019-04-20T05:41:42.937Z,16.60
2019-04-20T05:44:17.029Z,13.17
2019-04-20T05:46:56.563Z,15.73
2019-04-20T05:49:33.123Z,15.93
2019-04-20T05:52:10.260Z,13.45
2019-04-20T05:54:39.099Z,14.73
2019-04-20T05:57:17.206Z,14.70
2019-04-20T05:59:54.305Z,14.25
2019-04-20T06:02:16.865Z,12.27
2019-04-20T06:04:59.959Z,18.80
2019-04-20T06:07:27.151Z,13.43
2019-04-20T06:09:59.422Z,17.17
2019-04-20T06:12:31.841Z,26.07
2019-04-20T06:15:09.467Z,17.23
2019-04-20T06:18:03.844Z,16.57
2019-04-20T06:20:41.221Z,14.40
2019-04-20T06:23:38.706Z,12.15
2019-04-20T06:26:33.548Z,18.30
2019-04-20T06:28:38.801Z,46.48
2019-04-20T06:31:26.697Z,12.85
2019-04-20T06:34:27.137Z,13.18
2019-04-20T06:36:49.829Z,15.60
2019-04-20T06:47:10.370Z,13.38
2019-04-20T06:49:40.618Z,12.85
2019-04-20T06:55:05.155Z,13.43
2019-04-20T07:00:15.634Z,13.30
2019-04-20T07:02:48.553Z,14.33
2019-04-20T07:08:00.762Z,15.78
2019-04-20T07:10:34.696Z,13.43
2019-04-20T07:12:59.804Z,16.65
2019-04-20T07:15:41.189Z,11.90
2019-04-20T07:18:25.407Z,16.62
2019-04-20T07:21:17.211Z,10.60
2019-04-20T07:23:35.255Z,12.05
2019-04-20T07:26:09.543Z,10.15
2019-04-20T07:31:08.476Z,11.28
2019-04-20T07:33:48.231Z,11.43
2019-04-20T07:36:27.976Z,10.38
2019-04-20T07:38:56.799Z,6.70
2019-04-20T07:41:33.183Z,6.30
2019-04-20T07:44:07.295Z,8.60
2019-04-20T07:46:47.500Z,8.28
2019-04-20T07:49:07.676Z,10.80
2019-04-20T07:51:26.602Z,7.90
2019-04-20T07:54:23.240Z,8.80
2019-04-20T07:56:50.507Z,9.18
2019-04-20T07:59:14.963Z,8.33
2019-04-20T08:02:15.971Z,10.90
2019-04-20T08:04:43.498Z,9.63
2019-04-20T08:07:03.524Z,5.42
2019-04-20T08:09:42.200Z,3.90
2019-04-20T08:12:51.796Z,4.33
2019-04-20T08:15:32.444Z,10.53
2019-04-20T08:18:10.380Z,7.40
2019-04-20T08:20:24.558Z,5.45
2019-04-20T08:23:12.275Z,5.87
2019-04-20T08:25:27.794Z,8.73
2019-04-20T08:28:13.567Z,11.45
2019-04-20T08:31:09.445Z,6.97
2019-04-20T08:34:04.415Z,9.58
2019-04-20T08:36:30.091Z,10.78
2019-04-20T08:41:28.901Z,8.38
2019-04-20T08:44:21.110Z,6.72
2019-04-20T08:46:45.566Z,5.67
2019-04-20T08:49:20.468Z,10.15
2019-04-20T08:51:59.952Z,5.37
2019-04-20T08:54:18.100Z,8.83
2019-04-20T08:56:43.439Z,4.75
2019-04-20T08:59:09.374Z,10.82
2019-04-20T09:01:44.479Z,7.65
2019-04-20T09:04:25.464Z,9.78
2019-04-20T09:07:04.468Z,19.85
2019-04-20T09:10:00.389Z,6.12
2019-04-20T09:12:15.860Z,8.98
2019-04-20T09:14:34.751Z,6.37
2019-04-20T09:17:11.459Z,4.12
2019-04-20T09:19:52.707Z,12.50
2019-04-20T09:22:40.618Z,16.40
2019-04-20T09:28:14.516Z,6.97
2019-04-20T09:30:51.183Z,2.65
2019-04-20T09:33:48.703Z,4.62
2019-04-20T09:36:18.240Z,5.58
2019-04-20T09:39:05.895Z,6.83
2019-04-20T09:41:58.953Z,20.72
2019-04-20T09:44:11.012Z,3.90
2019-04-20T09:46:48.987Z,97.05
2019-04-20T09:49:30.718Z,52.38
2019-04-20T09:52:06.609Z,25.50
2019-04-20T09:54:41.638Z,3.75
2019-04-20T09:57:21.313Z,76.00
2019-04-20T09:59:52.653Z,11.33
2019-04-20T10:02:11.240Z,29.77
2019-04-20T10:04:39.810Z,3.05
2019-04-20T10:07:17.637Z,10.63
2019-04-20T10:09:47.340Z,22.80
2019-04-20T10:12:20.151Z,56.65
2019-04-20T10:14:53.197Z,3.37
2019-04-20T10:17:27.217Z,5.87
2019-04-20T10:20:02.553Z,8.13
2019-04-20T10:22:32.929Z,7.45
2019-04-20T10:25:06.644Z,6.92
2019-04-20T10:27:40.612Z,3.10
2019-04-20T10:30:12.555Z,5.72
2019-04-20T10:32:47.175Z,4.53
2019-04-20T10:35:18.822Z,5.25
2019-04-20T10:38:05.312Z,5.37
2019-04-20T10:40:47.547Z,4.47
2019-04-20T10:43:12.018Z,5.00
2019-04-20T10:45:44.860Z,22.02
2019-04-20T10:48:17.315Z,2.85
2019-04-20T10:50:49.352Z,4.87
2019-04-20T10:53:21.827Z,3.12
2019-04-20T10:55:53.880Z,4.10
2019-04-20T10:58:25.686Z,8.20
2019-04-20T11:00:57.776Z,4.10
2019-04-20T11:03:29.779Z,3.85
2019-04-20T11:06:02.769Z,3.17
2019-04-20T11:08:34.918Z,4.85
2019-04-20T11:11:14.602Z,3.30
2019-04-20T11:13:41.466Z,5.12
2019-04-20T11:16:14.712Z,7.53
2019-04-20T11:18:47.305Z,6.80
2019-04-20T11:21:19.629Z,5.72
2019-04-20T11:23:54.038Z,3.35
2019-04-20T11:26:28.496Z,2.98
2019-04-20T11:29:00.600Z,3.60
2019-04-20T11:31:40.571Z,5.25
2019-04-20T11:34:06.060Z,3.92
2019-04-20T11:36:39.234Z,3.12
2019-04-20T11:39:12.820Z,4.50
2019-04-20T11:41:45.722Z,6.55
2019-04-20T11:44:17.933Z,4.75
2019-04-20T11:46:50.368Z,2.50
2019-04-20T11:49:23.558Z,9.40
2019-04-20T11:51:57.243Z,2.58
2019-04-20T11:54:30.430Z,4.62
2019-04-20T11:57:03.715Z,6.17
2019-04-20T11:59:37.031Z,2.65
2019-04-20T12:02:21.491Z,3.35
2019-04-20T12:04:59.929Z,6.25
2019-04-20T12:07:24.770Z,5.33
2019-04-20T12:09:58.498Z,3.87
2019-04-20T12:12:39.997Z,1.52
2019-04-20T12:15:04.497Z,6.67
2019-04-20T12:17:37.720Z,4.62
2019-04-20T12:20:10.184Z,3.25
2019-04-20T12:22:42.218Z,6.70
2019-04-20T12:25:14.665Z,2.20
2019-04-20T12:27:50.837Z,5.10
2019-04-20T12:30:21.748Z,6.65
2019-04-20T12:32:57.653Z,5.05
2019-04-20T12:35:27.372Z,3.22
2019-04-20T12:37:59.266Z,2.80
2019-04-20T12:40:32.357Z,5.50
2019-04-20T12:43:04.762Z,8.75
2019-04-20T12:45:37.792Z,2.67
2019-04-20T12:48:09.754Z,2.92
2019-04-20T12:50:41.839Z,4.30
2019-04-20T12:53:14.816Z,3.62
2019-04-20T12:55:46.830Z,1.92
2019-04-20T12:58:18.782Z,21.23
2019-04-20T13:00:54.237Z,4.95
2019-04-20T13:03:27.567Z,6.78
2019-04-20T13:05:59.483Z,2.27
2019-04-20T13:08:36.829Z,5.35
2019-04-20T13:11:10.988Z,7.45
2019-04-20T13:14:06.347Z,3.92
2019-04-20T13:16:39.073Z,3.67
2019-04-20T13:19:11.199Z,2.60
2019-04-20T13:21:43.233Z,9.43
2019-04-20T13:24:15.191Z,3.12
2019-04-20T13:26:49.001Z,9.15
2019-04-20T13:29:21.132Z,5.17
2019-04-20T13:31:54.590Z,14.20
2019-04-20T13:34:26.559Z,5.42
2019-04-20T13:36:58.530Z,3.67
2019-04-20T13:39:30.979Z,6.35
2019-04-20T13:42:11.426Z,7.47
2019-04-20T13:44:36.963Z,3.58
2019-04-20T13:47:09.153Z,4.08
2019-04-20T13:49:41.111Z,4.75
2019-04-20T13:52:12.962Z,7.75
2019-04-20T13:54:45.262Z,4.05
2019-04-20T13:57:24.537Z,6.60
2019-04-20T14:00:02.379Z,4.42
2019-04-20T14:02:42.643Z,4.65
2019-04-20T14:05:16.924Z,6.65
2019-04-20T14:07:49.313Z,1.80
2019-04-20T14:10:22.041Z,9.53
2019-04-20T14:13:01.717Z,3.25
2019-04-20T14:15:29.005Z,3.17
2019-04-20T14:18:02.256Z,3.12
2019-04-20T14:20:34.358Z,4.50
2019-04-20T14:23:07.395Z,4.22
2019-04-20T14:25:39.303Z,3.98
2019-04-20T14:28:11.381Z,4.37
2019-04-20T14:30:45.787Z,4.55
2019-04-20T14:33:18.954Z,3.77
2019-04-20T14:35:51.009Z,3.58
2019-04-20T14:38:24.063Z,5.45
2019-04-20T14:40:56.160Z,4.08
2019-04-20T14:43:30.217Z,4.53
2019-04-20T14:46:02.947Z,9.50
2019-04-20T14:48:36.514Z,3.47
2019-04-20T14:51:09.783Z,4.92
2019-04-20T14:53:43.188Z,5.85
2019-04-20T14:56:15.672Z,6.65
2019-04-20T14:58:47.276Z,4.72
2019-04-20T15:01:36.856Z,4.72
2019-04-20T15:04:13.458Z,9.63
2019-04-20T15:06:42.518Z,8.28
2019-04-20T15:09:14.794Z,8.95
2019-04-20T15:11:46.758Z,12.23
2019-04-20T15:14:18.795Z,2.83
2019-04-20T15:16:50.941Z,6.08
2019-04-20T15:19:25.409Z,6.03
2019-04-20T15:21:59.823Z,5.55
2019-04-20T15:24:31.756Z,4.05
2019-04-20T15:27:04.767Z,3.40
2019-04-20T15:29:38.159Z,5.80
2019-04-20T15:32:10.313Z,4.00
2019-04-20T15:34:42.693Z,3.62
2019-04-20T15:37:14.647Z,7.17
2019-04-20T15:39:47.832Z,6.87
2019-04-20T15:42:19.671Z,6.20
2019-04-20T15:44:51.634Z,6.00
2019-04-20T15:47:23.568Z,10.82
2019-04-20T15:49:55.984Z,8.98
2019-04-20T15:52:36.277Z,10.30
2019-04-20T15:55:10.315Z,9.25
2019-04-20T15:57:36.495Z,7.05
2019-04-20T16:00:10.766Z,6.35
2019-04-20T16:02:47.409Z,16.70
2019-04-20T16:05:22.036Z,8.35
2019-04-20T16:07:58.586Z,10.75
2019-04-20T16:10:28.591Z,12.80
2019-04-20T16:13:11.805Z,11.40
2019-04-20T16:15:35.848Z,4.17
2019-04-20T16:18:10.097Z,12.60
2019-04-20T16:20:50.701Z,8.65
2019-04-20T16:23:16.638Z,7.47
2019-04-20T16:26:07.801Z,10.85
2019-04-20T16:28:39.979Z,8.75
2019-04-20T16:31:14.104Z,13.30
2019-04-20T16:33:46.483Z,11.30
2019-04-20T16:36:18.733Z,6.97
2019-04-20T16:38:51.125Z,5.15
2019-04-20T16:41:24.273Z,7.00
2019-04-20T16:43:57.478Z,19.50
2019-04-20T16:46:30.101Z,11.03
2019-04-20T16:49:03.035Z,7.50
2019-04-20T16:51:34.965Z,8.85
2019-04-20T16:54:07.780Z,7.85
2019-04-20T16:56:39.604Z,13.98
2019-04-20T16:59:12.170Z,11.22
2019-04-20T17:01:44.944Z,10.55
2019-04-20T17:04:22.016Z,9.95
2019-04-20T17:07:10.176Z,10.30
2019-04-20T17:09:43.928Z,11.03
2019-04-20T17:12:15.834Z,9.10
2019-04-20T17:14:47.716Z,6.15
2019-04-20T17:17:19.774Z,8.48
2019-04-20T17:19:51.864Z,15.18
2019-04-20T17:22:23.855Z,11.68
2019-04-20T17:24:56.175Z,14.70
2019-04-20T17:27:46.793Z,18.92
2019-04-20T17:30:24.916Z,17.52
2019-04-20T17:33:02.252Z,17.67
2019-04-20T17:35:43.471Z,26.73
2019-04-20T17:38:08.946Z,33.92
2019-04-20T17:41:01.546Z,19.17
2019-04-20T17:43:25.363Z,24.63
2019-04-20T17:45:57.865Z,33.40
2019-04-20T17:48:37.148Z,23.85
2019-04-20T17:51:17.728Z,34.75
2019-04-20T17:53:44.659Z,26.27
2019-04-20T17:56:10.434Z,24.87
2019-04-20T17:58:43.872Z,21.48
2019-04-20T18:01:51.911Z,21.15
2019-04-20T18:04:41.836Z,33.88
2019-04-20T18:06:58.017Z,21.23
2019-04-20T18:09:44.914Z,27.48
2019-04-20T18:11:59.622Z,23.40
2019-04-20T18:14:43.091Z,22.27
2019-04-20T18:17:17.756Z,31.05
2019-04-20T18:19:41.242Z,25.55
2019-04-20T18:22:13.964Z,29.82
2019-04-20T18:25:10.411Z,27.32
2019-04-20T18:27:37.571Z,21.45
2019-04-20T18:30:11.720Z,18.30
2019-04-20T18:32:29.529Z,20.40
2019-04-20T18:35:06.973Z,27.90
2019-04-20T18:37:36.662Z,25.62
2019-04-20T18:40:14.421Z,19.80
2019-04-20T18:42:44.202Z,25.10
2019-04-20T18:45:29.608Z,22.50
2019-04-20T18:48:11.681Z,26.60
2019-04-20T18:50:32.869Z,23.57
2019-04-20T18:52:58.135Z,30.80
2019-04-20T18:55:40.942Z,27.82
2019-04-20T18:58:04.710Z,41.05
2019-04-20T19:00:41.896Z,36.80
2019-04-20T19:03:18.146Z,35.68
2019-04-20T19:05:43.915Z,39.33
2019-04-20T19:08:18.030Z,44.77
2019-04-20T19:10:57.560Z,39.95
2019-04-20T19:13:42.355Z,36.63
2019-04-20T19:16:31.264Z,39.80
2019-04-20T19:19:09.922Z,51.92
2019-04-20T19:21:35.429Z,56.23
2019-04-20T19:24:12.676Z,47.48
2019-04-20T19:26:44.955Z,60.80
2019-04-20T19:29:23.228Z,46.73
2019-04-20T19:32:07.298Z,71.67
2019-04-20T19:34:37.775Z,118.50
2019-04-20T19:37:04.084Z,111.25
2019-04-20T19:39:44.880Z,78.72
2019-04-20T19:42:18.183Z,358.98
2019-04-20T19:44:51.624Z,102.07
2019-04-20T19:47:28.420Z,75.17
2019-04-20T19:49:56.502Z,69.05
2019-04-20T19:52:43.355Z,60.75
2019-04-20T19:55:10.586Z,58.78
2019-04-20T19:57:42.925Z,56.42
2019-04-20T19:59:58.726Z,53.40
2019-04-20T20:02:31.900Z,56.02
2019-04-20T20:05:08.712Z,49.27
2019-04-20T20:07:42.616Z,62.67
2019-04-20T20:10:12.864Z,58.75
2019-04-20T20:12:49.683Z,70.12
2019-04-20T20:15:26.157Z,99.67
2019-04-20T20:18:11.222Z,83.97
2019-04-20T20:20:47.450Z,88.70
2019-04-20T20:23:00.694Z,69.92
2019-04-20T20:25:37.319Z,67.53
2019-04-20T20:28:25.873Z,74.82
2019-04-20T20:30:53.817Z,74.87
2019-04-20T20:33:27.837Z,85.77
2019-04-20T20:35:58.546Z,92.57
2019-04-20T20:38:27.972Z,75.05
2019-04-20T20:41:05.709Z,63.55
2019-04-20T20:43:40.754Z,56.28
2019-04-20T20:46:18.418Z,51.37
2019-04-20T20:49:00.518Z,45.05
2019-04-20T20:51:34.617Z,41.28
2019-04-20T20:53:54.400Z,37.75
2019-04-20T20:56:24.403Z,50.65
2019-04-20T20:59:01.799Z,42.60
2019-04-20T21:01:27.525Z,39.65
2019-04-20T21:03:58.513Z,44.38
2019-04-20T21:06:32.857Z,36.25
2019-04-20T21:09:06.258Z,31.23
2019-04-20T21:11:40.157Z,27.20
2019-04-20T21:14:21.052Z,22.37
2019-04-20T21:16:57.605Z,25.45
2019-04-20T21:19:35.303Z,26.17
2019-04-20T21:22:04.462Z,25.00
2019-04-20T21:24:30.286Z,23.00
2019-04-20T21:27:08.862Z,30.27
2019-04-20T21:29:45.361Z,29.85
2019-04-20T21:32:14.369Z,26.20
2019-04-20T21:34:49.305Z,29.60
2019-04-20T21:37:20.084Z,33.60
2019-04-20T21:39:56.041Z,34.13
2019-04-20T21:42:28.186Z,33.48
2019-04-20T21:45:08.127Z,34.60
2019-04-20T21:47:36.294Z,26.75
2019-04-20T21:50:27.124Z,25.57
2019-04-20T21:52:46.671Z,27.67
2019-04-20T21:55:16.191Z,26.62
2019-04-20T21:57:51.687Z,25.15
2019-04-20T22:00:39.790Z,33.75
2019-04-20T22:03:11.281Z,28.15
2019-04-20T22:05:42.323Z,34.00
2019-04-20T22:08:16.444Z,34.67
2019-04-20T22:10:50.294Z,37.42
2019-04-20T22:13:28.224Z,37.53
2019-04-20T22:16:02.015Z,43.90
2019-04-20T22:18:31.872Z,46.68
2019-04-20T22:21:12.817Z,47.95
2019-04-20T22:23:57.232Z,51.63
2019-04-20T22:26:24.339Z,54.73
2019-04-20T22:28:44.576Z,54.18
2019-04-20T22:31:16.463Z,47.10
2019-04-20T22:33:48.832Z,44.13
2019-04-20T22:36:25.977Z,41.20
2019-04-20T22:39:09.807Z,40.38
2019-04-20T22:41:52.441Z,50.98
2019-04-20T22:44:22.456Z,47.15
2019-04-20T22:46:54.279Z,55.45
2019-04-20T22:49:41.348Z,53.35
2019-04-20T22:52:13.267Z,56.65
2019-04-20T22:54:48.874Z,59.00
2019-04-20T22:57:19.344Z,57.35
2019-04-20T22:59:52.448Z,57.10
2019-04-20T23:02:16.285Z,76.45
2019-04-20T23:04:48.810Z,76.87
2019-04-20T23:07:20.981Z,78.22
2019-04-20T23:09:56.448Z,81.25
2019-04-20T23:12:27.570Z,85.90
2019-04-20T23:15:00.478Z,72.22
2019-04-20T23:17:39.811Z,79.07
2019-04-20T23:20:15.351Z,73.57
2019-04-20T23:22:45.660Z,77.08
2019-04-20T23:25:15.404Z,90.25
2019-04-20T23:27:51.174Z,90.72
2019-04-20T23:30:26.230Z,81.28
2019-04-20T23:32:55.942Z,71.97
2019-04-20T23:35:28.653Z,63.33
2019-04-20T23:38:08.404Z,60.75
2019-04-20T23:40:35.070Z,62.03
2019-04-20T23:43:28.176Z,55.20
2019-04-20T23:46:20.942Z,71.72
2019-04-20T23:49:13.550Z,41.30
2019-04-20T23:51:59.152Z,38.42
2019-04-20T23:54:20.196Z,36.37
2019-04-20T23:56:48.002Z,53.10
2019-04-20T23:59:30.667Z,66.85
